地図

経路データ

SID SEASON NUMBER BASIN SUBBASIN NAME ISO_TIME NATURE LAT LON WMO_WIND WMO_PRES WMO_AGENCY TRACK_TYPE DIST2LAND LANDFALL IFLAG USA_AGENCY USA_ATCF_ID USA_LAT USA_LON USA_RECORD USA_STATUS USA_WIND USA_PRES USA_SSHS USA_R34_NE USA_R34_SE USA_R34_SW USA_R34_NW USA_R50_NE USA_R50_SE USA_R50_SW USA_R50_NW USA_R64_NE USA_R64_SE USA_R64_SW USA_R64_NW USA_POCI USA_ROCI USA_RMW USA_EYE TOKYO_LAT TOKYO_LON TOKYO_GRADE TOKYO_WIND TOKYO_PRES TOKYO_R50_DIR TOKYO_R50_LONG TOKYO_R50_SHORT TOKYO_R30_DIR TOKYO_R30_LONG TOKYO_R30_SHORT TOKYO_LAND CMA_LAT CMA_LON CMA_CAT CMA_WIND CMA_PRES HKO_LAT HKO_LON HKO_CAT HKO_WIND HKO_PRES NEWDELHI_LAT NEWDELHI_LON NEWDELHI_GRADE NEWDELHI_WIND NEWDELHI_PRES NEWDELHI_CI NEWDELHI_DP NEWDELHI_POCI REUNION_LAT REUNION_LON REUNION_TYPE REUNION_WIND REUNION_PRES REUNION_TNUM REUNION_CI REUNION_RMW REUNION_R34_NE REUNION_R34_SE REUNION_R34_SW REUNION_R34_NW REUNION_R50_NE REUNION_R50_SE REUNION_R50_SW REUNION_R50_NW REUNION_R64_NE REUNION_R64_SE REUNION_R64_SW REUNION_R64_NW BOM_LAT BOM_LON BOM_TYPE BOM_WIND BOM_PRES BOM_TNUM BOM_CI BOM_RMW BOM_R34_NE BOM_R34_SE BOM_R34_SW BOM_R34_NW BOM_R50_NE BOM_R50_SE BOM_R50_SW BOM_R50_NW BOM_R64_NE BOM_R64_SE BOM_R64_SW BOM_R64_NW BOM_ROCI BOM_POCI BOM_EYE BOM_POS_METHOD BOM_PRES_METHOD NADI_LAT NADI_LON NADI_CAT NADI_WIND NADI_PRES WELLINGTON_LAT WELLINGTON_LON WELLINGTON_WIND WELLINGTON_PRES DS824_LAT DS824_LON DS824_STAGE DS824_WIND DS824_PRES TD9636_LAT TD9636_LON TD9636_STAGE TD9636_WIND TD9636_PRES TD9635_LAT TD9635_LON TD9635_WIND TD9635_PRES TD9635_ROCI NEUMANN_LAT NEUMANN_LON NEUMANN_CLASS NEUMANN_WIND NEUMANN_PRES MLC_LAT MLC_LON MLC_CLASS MLC_WIND MLC_PRES USA_GUST BOM_GUST BOM_GUST_PER REUNION_GUST REUNION_GUST_PER USA_SEAHGT USA_SEARAD_NE USA_SEARAD_SE USA_SEARAD_SW USA_SEARAD_NW STORM_SPEED STORM_DIR
1984066S12151 1984 24 SP EA JIM 1984-03-05 21:00:00 NR -11.6000 151.400 20 1004 bom main 135 105 ______O_______ -1 -11.6000 151.400 20 20 1004 1.00000 45 45 14 270
1984066S12151 1984 24 SP EA JIM 1984-03-06 00:00:00 NR -11.6000 150.700 20 1005 bom main 105 100 ______O___O___ -1 -11.6000 150.700 20 20 1005 1.00000 -11.6000 150.700 1 45 45 14 270
1984066S12151 1984 24 SP EA JIM 1984-03-06 03:00:00 NR -11.6106 149.994 main 103 99 ______P___P___ -1 -11.6000 149.986 20 22 1004 -11.6265 150.007 1 14 279
1984066S12151 1984 24 SP EA JIM 1984-03-06 06:00:00 TS -11.3917 149.310 25 1003 bom main 111 111 O_____O___P_O_ jtwc_sh SH271984 -10.6000 149.300 25 -1 -11.6000 149.300 20 25 1003 1.50000 -11.6417 149.330 1 -10.6000 149.300 TC 25 45 45 13 282
1984066S12151 1984 24 SP EA JIM 1984-03-06 09:00:00 TS -11.3345 148.717 main 116 116 P_____P___P_P_ SH271984 -10.7602 148.800 25 -1 -11.6074 148.663 20 25 1003 -11.6359 148.689 1 -10.7602 148.800 TC 25 11 275
1984066S12151 1984 24 SP EA JIM 1984-03-06 12:00:00 TS -11.3000 148.186 25 1004 bom main 125 123 O_____O___O_O_ jtwc_sh SH271984 -10.9000 148.300 25 -1 -11.6000 148.100 20 25 1004 1.50000 -11.6000 148.100 1 -10.9000 148.300 TC 25 45 45 10 273
1984066S12151 1984 24 SP EA JIM 1984-03-06 15:00:00 TS -11.2773 147.701 main 127 127 P_____P___P_P_ SH271984 -11.0074 147.800 27 -1 -11.5648 147.628 20 25 1003 -11.5297 147.576 1 -11.0074 147.800 TC 25 9 271
1984066S12151 1984 24 SP EA JIM 1984-03-06 18:00:00 TS -11.2855 147.227 25 1003 bom main 145 145 O_____O___P_O_ jtwc_sh SH271984 -11.1000 147.300 30 -1 -11.5000 147.200 20 25 1003 2.00000 -11.4418 147.110 1 -11.1000 147.300 TC 25 45 45 9 269
1984066S12151 1984 24 SP EA JIM 1984-03-06 21:00:00 TS -11.2914 146.750 main 166 166 P_____P___P_P_ SH271984 -11.2075 146.793 30 -1 -11.3925 146.727 20 27 1003 -11.3580 146.689 1 -11.2075 146.793 TC 27 9 269
1984066S12151 1984 24 SP EA JIM 1984-03-07 00:00:00 TS -11.3000 146.300 30 1003 bom main 203 203 O_____O___O_O_ jtwc_sh SH271984 -11.3000 146.300 30 -1 -11.3000 146.300 20 30 1003 2.50000 -11.3000 146.300 2 -11.3000 146.300 TC 30 45 45 8 269
1984066S12151 1984 24 SP EA JIM 1984-03-07 03:00:00 TS -11.3123 145.906 main 238 238 P_____P___P_P_ SH271984 -11.3499 145.842 32 -1 -11.2862 146.000 20 32 999 -11.2633 145.937 2 -11.3499 145.842 TC 35 8 267
1984066S12151 1984 24 SP EA JIM 1984-03-07 06:00:00 TS -11.3398 145.525 35 995 bom main 262 217 O_____O___P_O_ jtwc_sh SH271984 -11.4000 145.400 35 0 -11.3000 145.700 30 35 995 3.00000 -11.2594 145.600 2 -11.4000 145.400 TC 40 49 49 8 264
1984066S12151 1984 24 SP EA JIM 1984-03-07 09:00:00 TS -11.3927 145.116 40 992 bom main 217 172 P_____O___P_P_ SH271984 -11.4849 144.950 35 0 -11.3000 145.300 30 40 992 3.00000 -11.3008 145.262 2 -11.4849 144.950 TC 42 55 55 8 259
1984066S12151 1984 24 SP EA JIM 1984-03-07 12:00:00 TS -11.5000 144.700 50 990 bom main 172 127 O_____O___O_O_ jtwc_sh SH271984 -11.6000 144.500 35 0 -11.4000 144.900 30 50 990 3.50000 -11.4000 144.900 2 -11.6000 144.500 TC 45 991 69 69 9 252
1984066S12151 1984 24 SP EA JIM 1984-03-07 15:00:00 TS -11.6589 144.268 50 985 bom main 124 79 P_____O___P_P_ SH271984 -11.7200 144.042 32 -1 -11.6000 144.500 30 50 985 3.50000 -11.5958 144.487 2 -11.7200 144.042 TC 50 69 69 9 247
1984066S12151 1984 24 SP EA JIM 1984-03-07 18:00:00 TS -11.8606 143.836 60 980 bom main 66 24 O_____O___P_O_ jtwc_sh SH271984 -11.9000 143.600 30 -1 -11.8000 144.100 30 60 980 4.00000 -11.8423 144.046 2 -11.9000 143.600 TC 55 84 84 10 242
1984066S12151 1984 24 SP EA JIM 1984-03-07 21:00:00 TS -12.1119 143.392 60 980 bom main 24 0 P_____O___P_P_ SH271984 -12.1774 143.193 30 -1 -12.0000 143.600 30 60 980 4.00000 -12.0927 143.581 2 -12.1774 143.193 TC 50 84 84 10 238
1984066S12151 1984 24 SP EA JIM 1984-03-08 00:00:00 TS -12.4000 142.950 60 990 bom main 0 0 O_____O___O_O_ jtwc_sh SH271984 -12.5000 142.800 30 -1 -12.3000 143.100 30 60 990 -12.3000 143.100 2 -12.5000 142.800 TC 45 84 84 9 244
1984066S12151 1984 24 SP EA JIM 1984-03-08 03:00:00 TS -12.5298 142.529 40 995 bom main 0 0 P_____O___P_P_ SH271984 -12.8299 142.400 32 -1 -12.1000 142.700 30 40 995 -12.3595 142.617 2 -12.8299 142.400 TC 40 55 55 9 252
1984066S12151 1984 24 SP EA JIM 1984-03-08 06:00:00 TS -12.6693 142.080 35 995 bom main 0 0 O_____O___P_O_ jtwc_sh SH271984 -13.1000 142.000 35 0 -12.1000 142.200 30 35 995 -12.3772 142.121 2 -13.1000 142.000 TC 35 49 49 9 255
1984066S12151 1984 24 SP EA JIM 1984-03-08 09:00:00 TS -12.7666 141.603 40 992 bom main 10 10 P_____O___P_P_ SH271984 -13.2299 141.600 35 0 -12.2000 141.600 21 40 992 3.00000 -12.4063 141.614 2 -13.2299 141.600 TC 40 55 55 9 256
1984066S12151 1984 24 SP EA JIM 1984-03-08 12:00:00 TS -12.9000 141.150 50 988 bom main 44 55 O_____O___O_O_ jtwc_sh SH271984 -13.3000 141.200 35 0 -12.5000 141.100 30 50 988 3.50000 -12.5000 141.100 2 -13.3000 141.200 TC 45 69 69 9 250
1984066S12151 1984 24 SP EA JIM 1984-03-08 15:00:00 TS -13.0822 140.702 50 986 bom main 98 98 P_____O___P_P_ SH271984 -13.3924 140.815 35 0 -12.8000 140.600 30 50 986 3.50000 -12.7442 140.579 2 -13.3924 140.815 TC 50 69 69 10 246
1984066S12151 1984 24 SP EA JIM 1984-03-08 18:00:00 TS -13.3137 140.213 50 984 bom main 153 153 O_____O___P_O_ jtwc_sh SH271984 -13.5000 140.400 35 0 -13.2000 140.000 30 50 984 3.50000 -13.0548 140.051 2 -13.5000 140.400 TC 55 69 69 11 245
1984066S12151 1984 24 SP EA JIM 1984-03-08 21:00:00 TS -13.5219 139.721 55 982 bom main 199 199 P_____O___P_P_ SH271984 -13.6499 139.930 37 0 -13.4000 139.500 30 55 982 4.00000 -13.3879 139.522 2 -13.6499 139.930 TC 57 75 75 11 246
1984066S12151 1984 24 SP EA JIM 1984-03-09 00:00:00 TS -13.7500 139.200 60 980 bom main 246 188 O_____O___O_O_ jtwc_sh SH271984 -13.8000 139.400 40 0 -13.7000 139.000 30 60 980 4.00000 -13.7000 139.000 2 -13.8000 139.400 TC 60 84 84 11 248
1984066S12151 1984 24 SP EA JIM 1984-03-09 03:00:00 TS -13.9436 138.637 60 978 bom main 178 120 P_____O___P_P_ SH271984 -13.9148 138.830 42 0 -14.0000 138.400 30 60 978 4.00000 -13.9447 138.488 2 -13.9148 138.830 TC 62 84 84 12 252
1984066S12151 1984 24 SP EA JIM 1984-03-09 06:00:00 TS -14.1149 138.021 60 976 bom main 110 44 O_____O___P_O_ jtwc_sh SH271984 -14.0000 138.200 45 0 -14.3000 137.700 30 60 976 4.00000 80 3 5 -14.1596 137.985 2 -14.0000 138.200 TC 65 84 84 12 256
1984066S12151 1984 24 SP EA JIM 1984-03-09 09:00:00 TS -14.2367 137.409 main 44 0 P_____P___P_P_ SH271984 -14.0574 137.515 45 0 -14.4872 137.119 30 62 975 96 -14.3447 137.489 2 -14.0574 137.515 TC 62 12 260
1984066S12151 1984 24 SP EA JIM 1984-03-09 12:00:00 TS -14.3250 136.800 65 974 bom main 0 0 O_____O___O_O_ jtwc_sh SH271984 -14.1000 136.800 45 0 -14.6000 136.600 40 65 974 4.50000 112 3 5 -14.5000 137.000 2 -14.1000 136.800 TC 60 89 89 12 262
1984066S12151 1984 24 SP EA JIM 1984-03-09 15:00:00 TS -14.3945 136.202 main 24 0 P_____P___P_P_ SH271984 -14.1122 136.115 42 0 -14.7271 136.060 40 67 972 109 -14.6267 136.519 2 -14.1122 136.115 TC 55 12 263
1984066S12151 1984 24 SP EA JIM 1984-03-09 18:00:00 TS -14.4662 135.555 70 970 bom main 0 0 O_____O___P_O_ jtwc_sh SH271984 -14.2000 135.400 40 0 -14.8000 135.500 40 70 970 4.50000 107 3 5 -14.7308 136.043 2 -14.2000 135.400 TC 50 99 99 13 261
1984066S12151 1984 24 SI WA JIM 1984-03-09 21:00:00 TS -14.6142 134.829 55 982 bom main 0 0 P_____O___P_P_ SH271984 -14.4700 134.608 37 0 -14.8000 134.900 30 55 982 107 3 5 -14.8195 135.571 2 -14.4700 134.608 TC 45 75 75 16 256
1984066S12151 1984 24 SI WA JIM 1984-03-10 00:00:00 TS -14.8385 133.962 45 992 bom main 0 0 O_____O___O_O_ jtwc_sh SH271984 -14.8000 133.800 35 0 -14.9000 134.000 30 45 992 118 3 5 -14.9000 135.100 1 -14.8000 133.800 TC 40 64 64 17 254
1984066S12151 1984 24 SI WA JIM 1984-03-10 03:00:00 TS -15.0996 133.120 main 0 0 P_____P_____P_ SH271984 -15.0799 133.020 32 -1 -15.1391 133.319 30 37 995 1 -15.0799 133.020 TC 37 16 251
1984066S12151 1984 24 SI WA JIM 1984-03-10 06:00:00 TS -15.3333 132.433 30 998 bom main 0 0 O_____O_____O_ jtwc_sh SH271984 -15.3000 132.300 30 -1 -15.4000 132.700 20 30 998 1 -15.3000 132.300 TC 35 45 45 14 255
1984066S12151 1984 24 SI WA JIM 1984-03-10 09:00:00 TS -15.4582 131.741 main 0 0 P_____P_____P_ SH271984 -15.4221 131.677 27 -1 -15.5304 131.870 20 27 1000 1 -15.4221 131.677 TC 32 13 261
1984066S12151 1984 24 SI WA JIM 1984-03-10 12:00:00 TS -15.5333 131.100 25 1002 bom main 0 0 O_____O_____O_ jtwc_sh SH271984 -15.5000 131.100 25 -1 -15.6000 131.100 80 25 1002 -15.5000 131.100 TC 30 45 45 12 262
1984066S12151 1984 24 SI WA JIM 1984-03-10 15:00:00 TS -15.6188 130.537 main 0 0 P_____P_____P_ SH271984 -15.5998 130.507 25 -1 -15.6570 130.597 80 25 1002 -15.5998 130.507 TC 30 11 261
1984066S12151 1984 24 SI WA JIM 1984-03-10 18:00:00 TS -15.7000 130.000 25 1002 bom main 0 0 O_____O_____O_ jtwc_sh SH271984 -15.7000 129.900 25 -1 -15.7000 130.200 80 25 1002 -15.7000 129.900 TC 30 45 45 11 261
1984066S12151 1984 24 SI WA JIM 1984-03-10 21:00:00 TS -15.7781 129.432 main 0 0 P_____P_____P_ SH271984 -15.7999 129.257 25 -1 -15.7347 129.780 80 25 1002 -15.7999 129.257 TC 30 12 262
1984066S12151 1984 24 SI WA JIM 1984-03-11 00:00:00 TS -15.8727 128.791 25 1002 bom main 0 0 O_____O_____O_ jtwc_sh SH271984 -15.9000 128.600 25 -1 -15.8000 129.300 80 25 1002 -15.9000 128.600 TC 30 45 45 13 262
1984066S12151 1984 24 SI WA JIM 1984-03-11 03:00:00 TS -15.9620 128.092 main 0 0 P_____P_____P_ SH271984 -15.9699 127.942 25 -1 -15.9306 128.690 80 22 1002 -15.9699 127.942 TC 27 14 261
1984066S12151 1984 24 SI WA JIM 1984-03-11 06:00:00 TS -16.1000 127.378 20 1002 bom main 0 0 O_____O_____O_ jtwc_sh SH271984 -16.1000 127.300 25 -1 -16.1000 128.000 80 20 1002 -16.1000 127.300 TC 25 45 45 14 253
1984066S12151 1984 24 SI WA JIM 1984-03-11 09:00:00 TS -16.3698 126.685 main 0 0 P___________P_ SH271984 -16.3698 126.685 25 -1 80 -16.3698 126.685 TC 25 14 244
1984066S12151 1984 24 SI WA JIM 1984-03-11 12:00:00 TS -16.7000 126.100 main 0 0 O___________O_ jtwc_sh SH271984 -16.7000 126.100 25 -1 -16.7000 126.100 TC 25 13 240
1984066S12151 1984 24 SI WA JIM 1984-03-11 15:00:00 TS -17.0300 125.513 main 0 0 P___________P_ SH271984 -17.0300 125.513 25 -1 -17.0300 125.513 TC 25 12 240
1984066S12151 1984 24 SI WA JIM 1984-03-11 18:00:00 TS -17.3000 125.000 main 0 0 O___________O_ jtwc_sh SH271984 -17.3000 125.000 25 -1 -17.3000 125.000 TC 25 10 244
1984066S12151 1984 24 SI WA JIM 1984-03-11 21:00:00 TS -17.4524 124.590 main 0 0 P___________P_ SH271984 -17.4524 124.590 25 -1 -17.4524 124.590 TC 22 7 253
1984066S12151 1984 24 SI WA JIM 1984-03-12 00:00:00 TS -17.5000 124.300 main 0 0 O___________O_ jtwc_sh SH271984 -17.5000 124.300 25 -1 -17.5000 124.300 TC 20 4 268
1984066S12151 1984 24 SI WA JIM 1984-03-12 03:00:00 TS -17.4700 124.120 main 0 0 P___________P_ SH271984 -17.4700 124.120 22 -1 -17.4700 124.120 TC 20 3 289
1984066S12151 1984 24 SI WA JIM 1984-03-12 06:00:00 TS -17.4000 124.000 main 0 O___________O_ jtwc_sh SH271984 -17.4000 124.000 20 -1 -17.4000 124.000 TC 20 3 302

デジタル台風データ・検索

IBTrACS Databaseについて

本データベースは、米国NOAAが公開する1842年以降の世界の熱帯低気圧のベストトラックデータアーカイブInternational Best Track Archive for Climate Stewardship (IBTrACS)を、ウェブで閲覧しやすい形式に変換したものです。

最終更新日:2021-12-06